Time;durP1;ratioP1;P1;durP2;ratioP2;P2;SDS_P1;SDS_P2;PMS_P1;PMS_P2;Temp;Humidity;BMP_temperature;BMP_pressure;BME280_temperature;BME280_humidity;BME280_pressure;Samples;Min_cycle;Max_cycle;Signal;HPM_P1;HPM_P2
2023/04/03 00:01:01;;;;;;;1.42;1.33;;;20.20;65.30;;;;;;5044143;28;20067;-71
2023/04/03 00:03:28;;;;;;;0.47;0.08;;;20.30;65.40;;;;;;5029783;28;20116;-71
2023/04/03 00:05:55;;;;;;;0.75;0.30;;;20.30;65.30;;;;;;5038793;28;20501;-71
2023/04/03 00:08:22;;;;;;;0.82;0.45;;;20.20;65.20;;;;;;5031227;28;20046;-71
2023/04/03 00:10:50;;;;;;;0.85;0.40;;;20.30;65.20;;;;;;5035752;28;20041;-71
2023/04/03 00:13:19;;;;;;;0.68;0.35;;;20.30;65.20;;;;;;5036634;28;20049;-71
2023/04/03 00:15:46;;;;;;;0.73;0.32;;;20.30;65.20;;;;;;5030369;28;20498;-71
2023/04/03 00:18:13;;;;;;;0.70;0.40;;;20.30;65.10;;;;;;5032130;28;20469;-71
2023/04/03 00:20:40;;;;;;;0.68;0.10;;;20.30;65.20;;;;;;5037456;28;20045;-71
2023/04/03 00:23:07;;;;;;;0.60;0.20;;;20.30;65.10;;;;;;5036832;28;20057;-71
2023/04/03 00:25:34;;;;;;;0.75;0.20;;;20.20;65.10;;;;;;5041845;28;20052;-71
2023/04/03 00:28:01;;;;;;;1.00;0.60;;;20.20;65.10;;;;;;5033634;28;20057;-71
2023/04/03 00:30:30;;;;;;;1.05;0.20;;;20.20;65.20;;;;;;5035560;28;20049;-71
2023/04/03 00:32:57;;;;;;;0.90;0.10;;;20.20;65.20;;;;;;5045416;28;20056;-71
2023/04/03 00:35:25;;;;;;;1.35;0.50;;;20.10;65.20;;;;;;5029798;28;20045;-71
2023/04/03 00:37:52;;;;;;;0.88;0.40;;;20.10;65.20;;;;;;5036026;28;20048;-71
2023/04/03 00:40:19;;;;;;;0.90;0.40;;;20.10;65.30;;;;;;5036272;28;20059;-71
2023/04/03 00:42:49;;;;;;;0.75;0.10;;;20.00;65.30;;;;;;5034616;28;20449;-71
2023/04/03 00:45:29;;;;;;;0.75;0.50;;;19.90;65.30;;;;;;5031949;28;20464;-71
2023/04/03 00:47:59;;;;;;;1.08;0.35;;;20.00;65.40;;;;;;5035199;28;20068;-71
2023/04/03 00:50:27;;;;;;;0.82;0.10;;;19.90;65.40;;;;;;5032758;28;20083;-70
2023/04/03 00:52:55;;;;;;;0.50;0.10;;;19.90;65.40;;;;;;5034817;28;20041;-70
2023/04/03 00:55:23;;;;;;;0.70;0.40;;;19.90;65.50;;;;;;5045327;28;20052;-70
2023/04/03 00:57:50;;;;;;;0.40;0.00;;;19.80;65.60;;;;;;5045508;28;20051;-69
2023/04/03 01:00:20;;;;;;;1.17;0.50;;;19.80;65.60;;;;;;5036522;28;20099;-70
2023/04/03 01:02:47;;;;;;;1.65;0.10;;;19.80;65.70;;;;;;5039314;28;20042;-70
2023/04/03 01:05:18;;;;;;;0.80;0.08;;;19.70;65.70;;;;;;5027734;28;20136;-70
2023/04/03 01:07:47;;;;;;;0.73;0.30;;;19.70;65.70;;;;;;5026375;28;20049;-70
2023/04/03 01:10:19;;;;;;;0.50;0.00;;;19.70;65.80;;;;;;5039307;28;20060;-71
2023/04/03 01:12:48;;;;;;;0.30;0.00;;;19.70;66.40;;;;;;5036304;28;20057;-70
2023/04/03 01:15:18;;;;;;;0.60;0.10;;;19.60;65.80;;;;;;5033167;28;20457;-71
2023/04/03 01:17:47;;;;;;;0.68;0.40;;;19.60;65.90;;;;;;5034792;28;20053;-69
2023/04/03 01:20:40;;;;;;;0.73;0.00;;;19.60;65.90;;;;;;5035167;28;20057;-71
2023/04/03 01:23:26;;;;;;;0.60;0.08;;;19.50;65.80;;;;;;5040486;28;20095;-70
2023/04/03 01:25:55;;;;;;;1.10;0.77;;;19.50;65.90;;;;;;5028063;28;20041;-71
2023/04/03 01:28:24;;;;;;;0.60;0.20;;;19.50;65.90;;;;;;5029739;28;20053;-72
2023/04/03 01:30:56;;;;;;;0.73;0.10;;;19.50;65.90;;;;;;5028617;28;20045;-72
2023/04/03 01:33:25;;;;;;;1.02;0.35;;;19.50;65.90;;;;;;5034980;28;20052;-71
2023/04/03 01:35:52;;;;;;;0.60;0.10;;;19.50;65.90;;;;;;5032795;28;20061;-72
2023/04/03 01:38:19;;;;;;;0.43;0.10;;;19.50;66.00;;;;;;5029361;28;20549;-71
2023/04/03 01:40:46;;;;;;;0.50;0.10;;;19.50;65.90;;;;;;5038610;28;20084;-72
2023/04/03 01:43:12;;;;;;;1.58;0.20;;;19.50;65.80;;;;;;5030154;28;20052;-71
2023/04/03 01:45:39;;;;;;;0.60;0.03;;;19.50;65.80;;;;;;5035642;28;20060;-71
2023/04/03 01:48:07;;;;;;;0.57;0.00;;;19.50;65.70;;;;;;5042583;28;20049;-70
2023/04/03 01:50:35;;;;;;;0.28;0.03;;;19.60;65.70;;;;;;5034513;28;20128;-71
2023/04/03 01:53:02;;;;;;;1.00;0.20;;;19.60;65.70;;;;;;5029228;28;20055;-72
2023/04/03 01:55:29;;;;;;;0.70;0.10;;;19.70;65.60;;;;;;5044957;28;20423;-70
2023/04/03 01:57:56;;;;;;;0.80;0.20;;;19.70;65.60;;;;;;5032172;28;20068;-71
2023/04/03 02:00:23;;;;;;;1.10;0.10;;;19.80;65.50;;;;;;5034484;28;20056;-71
2023/04/03 02:02:50;;;;;;;0.70;0.40;;;19.80;65.40;;;;;;5028882;28;20053;-70
2023/04/03 02:05:17;;;;;;;0.50;0.30;;;19.90;65.30;;;;;;5028189;28;20046;-69
2023/04/03 02:07:46;;;;;;;0.50;0.10;;;20.00;65.90;;;;;;5046221;28;20533;-71
2023/04/03 02:10:13;;;;;;;0.35;0.00;;;20.00;65.20;;;;;;5035124;28;20093;-71
2023/04/03 02:12:41;;;;;;;0.50;0.10;;;20.00;65.10;;;;;;5042786;28;20053;-70
2023/04/03 02:15:08;;;;;;;0.70;0.20;;;20.10;65.00;;;;;;5043732;28;20453;-70
2023/04/03 02:17:36;;;;;;;0.73;0.30;;;20.20;64.90;;;;;;5044742;28;20460;-71
2023/04/03 02:20:04;;;;;;;0.68;0.30;;;20.20;65.40;;;;;;5030691;28;20050;-71
2023/04/03 02:22:31;;;;;;;0.90;0.40;;;20.20;64.80;;;;;;5037742;28;20766;-71
2023/04/03 02:24:59;;;;;;;0.75;0.10;;;20.30;64.80;;;;;;5032522;28;20049;-70
2023/04/03 02:27:26;;;;;;;0.75;0.30;;;20.20;64.70;;;;;;5032304;28;20060;-70
2023/04/03 02:29:53;;;;;;;0.73;0.10;;;20.30;64.80;;;;;;5032264;28;20052;-72
2023/04/03 02:32:20;;;;;;;0.65;0.10;;;20.20;64.70;;;;;;5031830;28;20064;-71
2023/04/03 02:34:47;;;;;;;1.08;0.00;;;20.20;64.70;;;;;;5038756;28;20045;-70
2023/04/03 02:37:14;;;;;;;0.60;0.10;;;20.20;64.70;;;;;;5040064;28;20045;-71
2023/04/03 02:39:41;;;;;;;0.65;0.40;;;20.20;64.70;;;;;;5030472;28;20056;-71
2023/04/03 02:42:09;;;;;;;0.77;0.05;;;20.20;64.70;;;;;;5031151;28;20490;-71
2023/04/03 02:44:36;;;;;;;0.60;0.10;;;20.10;64.60;;;;;;5041731;28;20402;-72
2023/04/03 02:47:03;;;;;;;0.75;0.20;;;20.10;64.60;;;;;;5051759;28;20060;-71
2023/04/03 02:49:30;;;;;;;0.32;0.10;;;20.10;64.70;;;;;;5044581;28;20052;-71
2023/04/03 02:51:57;;;;;;;0.90;0.22;;;20.10;64.80;;;;;;5046129;28;20052;-72
2023/04/03 02:54:27;;;;;;;0.82;0.08;;;20.00;64.80;;;;;;5042881;28;20045;-71
2023/04/03 02:56:54;;;;;;;0.63;0.10;;;20.00;64.80;;;;;;5049145;28;20729;-70
2023/04/03 02:59:22;;;;;;;1.00;0.40;;;20.00;64.90;;;;;;5046093;28;20053;-72
2023/04/03 03:01:50;;;;;;;0.60;0.10;;;19.90;64.90;;;;;;5031962;28;20053;-71
2023/04/03 03:04:17;;;;;;;0.50;0.10;;;19.90;64.90;;;;;;5047200;28;20501;-71
2023/04/03 03:06:44;;;;;;;0.43;0.00;;;19.80;64.90;;;;;;5049281;28;20063;-71
2023/04/03 03:09:11;;;;;;;0.85;0.10;;;19.80;65.00;;;;;;5030631;28;20064;-71
2023/04/03 03:11:37;;;;;;;0.90;0.00;;;19.70;65.00;;;;;;5045601;28;20049;-71
2023/04/03 03:14:04;;;;;;;0.70;0.00;;;19.70;65.10;;;;;;5031265;28;20395;-71
2023/04/03 03:16:33;;;;;;;0.40;0.00;;;19.70;65.20;;;;;;5037146;28;20387;-72
2023/04/03 03:19:00;;;;;;;0.85;0.10;;;19.60;65.20;;;;;;5029803;28;20084;-72
2023/04/03 03:21:27;;;;;;;0.68;0.10;;;19.60;65.20;;;;;;5030618;28;20061;-71
2023/04/03 03:23:54;;;;;;;0.50;0.03;;;19.60;65.30;;;;;;5031402;28;20056;-72
2023/04/03 03:26:21;;;;;;;0.80;0.40;;;19.50;65.30;;;;;;5031344;28;20049;-70
2023/04/03 03:28:48;;;;;;;0.70;0.10;;;19.50;65.30;;;;;;5047997;28;20053;-70
2023/04/03 03:31:15;;;;;;;0.55;0.08;;;19.50;65.30;;;;;;5049884;28;20049;-70
2023/04/03 03:33:43;;;;;;;0.73;0.10;;;19.50;65.30;;;;;;5042443;28;20045;-71
2023/04/03 03:36:11;;;;;;;0.70;0.10;;;19.50;65.20;;;;;;5029881;28;20057;-70
2023/04/03 03:38:38;;;;;;;0.30;0.10;;;19.50;65.20;;;;;;5048147;28;20108;-71
2023/04/03 03:41:05;;;;;;;0.30;0.05;;;19.50;65.20;;;;;;5044033;28;20731;-72
2023/04/03 03:43:33;;;;;;;0.40;0.20;;;19.60;65.20;;;;;;5037388;28;20057;-71
2023/04/03 03:45:59;;;;;;;0.47;0.10;;;19.50;65.10;;;;;;5047017;28;20045;-71
2023/04/03 03:48:26;;;;;;;1.17;0.08;;;19.60;65.10;;;;;;5035875;28;20653;-72
2023/04/03 03:50:55;;;;;;;0.35;0.00;;;19.60;65.10;;;;;;5034135;28;20060;-71
2023/04/03 03:53:22;;;;;;;1.00;0.10;;;19.60;65.10;;;;;;5038762;28;20049;-71
2023/04/03 03:55:49;;;;;;;0.70;0.47;;;19.70;65.10;;;;;;5030464;28;20060;-71
2023/04/03 03:58:16;;;;;;;1.00;0.50;;;19.70;65.00;;;;;;5040259;28;20049;-71
2023/04/03 04:00:43;;;;;;;0.25;0.00;;;19.70;64.90;;;;;;5037034;28;20050;-71
2023/04/03 04:03:09;;;;;;;0.40;0.10;;;19.80;64.80;;;;;;5030321;28;20057;-72
2023/04/03 04:05:36;;;;;;;0.73;0.10;;;19.90;64.80;;;;;;5038813;28;20049;-72
2023/04/03 04:08:05;;;;;;;0.60;0.30;;;19.90;64.70;;;;;;5031252;28;20053;-71
2023/04/03 04:10:32;;;;;;;1.00;0.10;;;20.00;64.60;;;;;;5039349;28;20053;-71
2023/04/03 04:12:59;;;;;;;0.40;0.10;;;20.00;64.50;;;;;;5034924;28;20049;-71
2023/04/03 04:15:26;;;;;;;0.43;0.05;;;20.10;64.40;;;;;;5034670;28;20060;-71
2023/04/03 04:17:54;;;;;;;0.90;0.40;;;20.20;64.30;;;;;;5043732;28;20572;-72
2023/04/03 04:20:21;;;;;;;1.20;0.40;;;20.20;64.20;;;;;;5030180;28;20692;-71
2023/04/03 04:22:48;;;;;;;1.00;0.60;;;20.20;64.10;;;;;;5039806;28;20056;-71
2023/04/03 04:25:16;;;;;;;0.77;0.10;;;20.20;64.00;;;;;;5039034;28;20037;-72
2023/04/03 04:27:43;;;;;;;0.80;0.30;;;20.30;64.10;;;;;;5044848;28;20052;-72
2023/04/03 04:30:11;;;;;;;0.40;0.10;;;20.30;64.00;;;;;;5045418;28;20037;-71
2023/04/03 04:32:38;;;;;;;0.82;0.38;;;20.20;64.00;;;;;;5033160;28;20072;-71
2023/04/03 04:35:06;;;;;;;0.80;0.10;;;20.20;64.10;;;;;;5035987;28;20052;-70
2023/04/03 04:37:33;;;;;;;0.70;0.40;;;20.20;64.70;;;;;;5036082;28;20624;-71
2023/04/03 04:40:00;;;;;;;0.68;0.00;;;20.20;64.10;;;;;;5043642;28;20049;-71
2023/04/03 04:42:28;;;;;;;0.88;0.10;;;20.20;64.10;;;;;;5028826;28;20048;-71
2023/04/03 04:44:55;;;;;;;0.40;0.10;;;20.10;64.10;;;;;;5035715;28;20056;-71
2023/04/03 04:47:24;;;;;;;0.75;0.40;;;20.10;64.10;;;;;;5034414;28;20049;-70
2023/04/03 04:49:51;;;;;;;0.40;0.08;;;20.10;64.10;;;;;;5044096;28;20060;-70
2023/04/03 04:52:18;;;;;;;0.35;0.03;;;20.00;64.10;;;;;;5033337;28;20409;-71
2023/04/03 04:54:46;;;;;;;1.05;0.05;;;20.00;64.10;;;;;;5031182;28;20395;-71
2023/04/03 04:57:13;;;;;;;0.80;0.10;;;20.00;64.20;;;;;;5036098;28;20060;-70
2023/04/03 04:59:41;;;;;;;1.08;0.10;;;20.00;64.80;;;;;;5039432;28;20041;-71
2023/04/03 05:02:08;;;;;;;0.50;0.00;;;19.90;64.20;;;;;;5032746;28;20556;-71
2023/04/03 05:04:35;;;;;;;0.82;0.17;;;19.90;64.30;;;;;;5030963;28;20598;-71
2023/04/03 05:07:02;;;;;;;0.57;0.10;;;19.80;64.30;;;;;;5032547;28;20491;-71
2023/04/03 05:09:29;;;;;;;0.38;0.00;;;19.70;64.30;;;;;;5027445;28;20058;-71
2023/04/03 05:11:56;;;;;;;0.60;0.10;;;19.70;64.40;;;;;;5033979;28;20045;-71
2023/04/03 05:14:23;;;;;;;0.70;0.00;;;19.70;64.40;;;;;;5035441;28;20060;-71
2023/04/03 05:16:53;;;;;;;0.60;0.03;;;19.60;64.50;;;;;;5031115;28;20041;-72
2023/04/03 05:19:20;;;;;;;1.10;0.50;;;19.60;64.50;;;;;;5034816;28;20472;-71
2023/04/03 05:21:48;;;;;;;1.58;0.80;;;19.60;64.60;;;;;;5039603;28;20497;-71
2023/04/03 05:24:15;;;;;;;1.27;0.10;;;19.50;64.50;;;;;;5035389;28;20045;-71
2023/04/03 05:26:42;;;;;;;0.80;0.10;;;19.50;64.50;;;;;;5035669;28;20106;-70
2023/04/03 05:29:10;;;;;;;0.50;0.00;;;19.60;64.60;;;;;;5039304;28;20418;-70
2023/04/03 05:31:37;;;;;;;0.80;0.20;;;19.60;64.60;;;;;;5028805;28;20045;-71
2023/04/03 05:34:06;;;;;;;0.55;0.10;;;19.60;64.50;;;;;;5039791;28;20048;-73
2023/04/03 05:36:32;;;;;;;0.40;0.00;;;19.60;64.50;;;;;;5029284;28;20057;-71
2023/04/03 05:39:00;;;;;;;1.05;0.10;;;19.60;64.50;;;;;;5027199;28;20045;-71
2023/04/03 05:41:27;;;;;;;0.55;0.10;;;19.60;64.50;;;;;;5035110;28;20552;-73
2023/04/03 05:43:54;;;;;;;1.40;0.40;;;19.70;64.40;;;;;;5044361;28;20048;-71
2023/04/03 05:46:21;;;;;;;0.60;0.10;;;19.70;64.40;;;;;;5043744;28;20037;-72
2023/04/03 05:48:48;;;;;;;1.08;0.10;;;19.80;64.40;;;;;;5043538;28;20053;-71
2023/04/03 05:51:19;;;;;;;0.80;0.40;;;19.90;64.30;;;;;;5044627;28;20051;-71
2023/04/03 05:53:48;;;;;;;0.52;0.10;;;19.90;64.20;;;;;;5040247;28;20040;-71
2023/04/03 05:56:15;;;;;;;0.55;0.10;;;20.00;64.10;;;;;;5036488;28;20049;-70
2023/04/03 05:58:42;;;;;;;0.57;0.13;;;20.50;63.50;;;;;;5044013;28;20057;-69
2023/04/03 06:01:09;;;;;;;0.93;0.50;;;21.20;62.50;;;;;;5033474;28;20080;-69
2023/04/03 06:03:36;;;;;;;0.60;0.00;;;22.10;61.00;;;;;;5035816;28;20388;-69
2023/04/03 06:06:05;;;;;;;1.98;0.10;;;22.40;60.00;;;;;;5032731;28;20456;-70
2023/04/03 06:08:34;;;;;;;0.40;0.10;;;22.30;59.80;;;;;;5041318;28;20053;-71
2023/04/03 06:11:02;;;;;;;0.73;0.10;;;22.10;60.00;;;;;;5035592;28;20037;-69
2023/04/03 06:13:29;;;;;;;1.42;0.50;;;21.90;60.20;;;;;;5032322;28;20490;-69
2023/04/03 06:15:57;;;;;;;0.50;0.10;;;21.80;60.50;;;;;;5035454;28;20124;-69
2023/04/03 06:18:24;;;;;;;0.65;0.22;;;21.70;60.80;;;;;;5042824;28;20053;-68
2023/04/03 06:20:50;;;;;;;1.23;0.10;;;21.60;61.00;;;;;;5037928;28;20399;-68
2023/04/03 06:23:17;;;;;;;0.98;0.10;;;21.50;61.20;;;;;;5040361;28;20049;-68
2023/04/03 06:25:46;;;;;;;0.45;0.08;;;21.50;61.40;;;;;;5033787;28;20406;-68
2023/04/03 06:28:13;;;;;;;0.63;0.00;;;21.40;61.50;;;;;;5030773;28;20053;-69
2023/04/03 06:30:40;;;;;;;0.80;0.22;;;21.40;61.70;;;;;;5032351;28;20064;-68
2023/04/03 06:33:07;;;;;;;0.68;0.10;;;21.30;61.80;;;;;;5046630;28;20041;-68
2023/04/03 06:35:34;;;;;;;1.02;0.40;;;21.20;61.90;;;;;;5049095;28;20049;-68
2023/04/03 06:38:03;;;;;;;0.73;0.40;;;21.20;62.10;;;;;;5042807;28;20049;-69
2023/04/03 06:40:31;;;;;;;0.60;0.10;;;21.10;62.80;;;;;;5043341;28;20485;-68
2023/04/03 06:42:59;;;;;;;0.63;0.22;;;21.10;62.40;;;;;;5038172;28;20481;-68
2023/04/03 06:45:27;;;;;;;0.40;0.00;;;21.00;62.40;;;;;;5051212;28;20056;-68
2023/04/03 06:47:54;;;;;;;0.98;0.00;;;21.00;62.40;;;;;;5038795;28;20044;-68
2023/04/03 06:50:21;;;;;;;0.90;0.00;;;21.00;62.50;;;;;;5049865;28;20045;-68
2023/04/03 06:52:48;;;;;;;0.82;0.30;;;21.00;62.60;;;;;;5047198;28;20057;-68
2023/04/03 06:55:15;;;;;;;0.68;0.10;;;20.90;62.70;;;;;;5049531;28;20448;-69
2023/04/03 06:57:42;;;;;;;0.95;0.10;;;20.90;62.80;;;;;;5048713;28;20048;-68
2023/04/03 07:00:13;;;;;;;1.00;0.40;;;20.80;62.80;;;;;;5045808;28;20054;-69
2023/04/03 07:02:39;;;;;;;1.02;0.45;;;20.80;62.90;;;;;;5042113;28;20041;-69
2023/04/03 07:05:08;;;;;;;1.15;0.10;;;20.70;63.00;;;;;;5049830;28;20045;-69
2023/04/03 07:07:35;;;;;;;0.65;0.00;;;20.70;63.10;;;;;;5046211;28;20622;-68
2023/04/03 07:10:03;;;;;;;0.45;0.10;;;20.70;63.10;;;;;;5037462;28;20079;-68
2023/04/03 07:12:29;;;;;;;0.43;0.00;;;20.60;63.10;;;;;;5048408;28;20049;-68
2023/04/03 07:14:56;;;;;;;0.63;0.10;;;20.60;63.20;;;;;;5047011;28;20055;-69
2023/04/03 07:17:25;;;;;;;1.35;0.20;;;20.60;63.40;;;;;;5044475;28;20280;-69
2023/04/03 07:19:52;;;;;;;1.75;0.10;;;20.60;63.40;;;;;;5037265;28;20084;-69
2023/04/03 07:22:19;;;;;;;0.93;0.30;;;20.60;63.40;;;;;;5049831;28;20049;-69
2023/04/03 07:24:46;;;;;;;0.65;0.10;;;20.60;63.40;;;;;;5035041;28;20109;-69
2023/04/03 07:27:13;;;;;;;1.35;0.57;;;20.60;63.40;;;;;;5038115;28;20045;-68
2023/04/03 07:29:41;;;;;;;0.90;0.10;;;20.60;63.40;;;;;;5049735;28;20144;-68
2023/04/03 07:32:08;;;;;;;0.38;0.00;;;20.60;63.40;;;;;;5038509;28;20052;-69
2023/04/03 07:34:36;;;;;;;0.70;0.10;;;20.70;63.40;;;;;;5045400;28;20045;-68
2023/04/03 07:37:04;;;;;;;0.75;0.10;;;20.80;63.30;;;;;;5045771;28;20049;-69
2023/04/03 07:39:31;;;;;;;0.82;0.10;;;20.80;63.30;;;;;;5040897;28;20084;-68
2023/04/03 07:41:58;;;;;;;0.55;0.10;;;20.90;63.30;;;;;;5036781;28;20080;-70
2023/04/03 07:44:26;;;;;;;0.68;0.40;;;20.90;63.20;;;;;;5047124;28;20053;-68
2023/04/03 07:46:53;;;;;;;0.55;0.10;;;20.90;63.10;;;;;;5036251;28;20057;-68
2023/04/03 07:49:20;;;;;;;0.40;0.10;;;21.00;63.10;;;;;;5044971;28;20057;-67
2023/04/03 07:51:48;;;;;;;0.77;0.10;;;21.00;63.00;;;;;;5041233;28;20049;-69
2023/04/03 07:54:15;;;;;;;1.05;0.10;;;21.00;63.00;;;;;;5045831;28;20072;-68
2023/04/03 07:56:43;;;;;;;0.90;0.52;;;21.00;63.00;;;;;;5048020;28;20578;-68
2023/04/03 07:59:12;;;;;;;0.55;0.08;;;21.10;63.10;;;;;;5043792;28;20076;-68
2023/04/03 08:01:39;;;;;;;0.52;0.10;;;21.10;63.00;;;;;;5040431;28;20053;-68
2023/04/03 08:04:06;;;;;;;0.40;0.10;;;21.10;63.00;;;;;;5038338;28;20052;-68
2023/04/03 08:06:35;;;;;;;1.83;0.13;;;21.10;63.10;;;;;;5047721;28;20049;-68
2023/04/03 08:09:04;;;;;;;0.40;0.10;;;21.00;63.10;;;;;;5036221;28;20133;-68
2023/04/03 08:11:31;;;;;;;0.80;0.10;;;21.00;63.10;;;;;;5038520;28;20084;-68
2023/04/03 08:13:59;;;;;;;1.35;0.20;;;21.00;63.20;;;;;;5038992;28;20096;-68
2023/04/03 08:16:27;;;;;;;2.33;0.17;;;21.00;63.20;;;;;;5033747;28;20048;-68
2023/04/03 08:18:54;;;;;;;0.90;0.30;;;21.00;63.30;;;;;;5028795;28;20162;-68
2023/04/03 08:21:22;;;;;;;1.33;0.52;;;21.00;63.30;;;;;;5037720;28;20468;-68
2023/04/03 08:23:50;;;;;;;0.70;0.10;;;21.00;63.40;;;;;;5044890;28;20056;-68
2023/04/03 08:26:20;;;;;;;1.05;0.40;;;21.00;63.40;;;;;;5042347;28;20148;-68
2023/04/03 08:28:47;;;;;;;0.85;0.32;;;20.90;63.40;;;;;;5034486;28;20057;-68
2023/04/03 08:31:16;;;;;;;1.52;0.50;;;20.90;63.50;;;;;;5027984;28;20443;-66
2023/04/03 08:33:43;;;;;;;1.27;0.43;;;20.90;63.60;;;;;;5038332;28;20049;-68
2023/04/03 08:36:19;;;;;;;0.70;0.38;;;20.90;63.60;;;;;;5028237;28;20049;-68
2023/04/03 08:38:46;;;;;;;0.47;0.10;;;20.90;63.70;;;;;;5032889;28;20421;-68
2023/04/03 08:41:16;;;;;;;0.60;0.38;;;20.90;63.70;;;;;;5029436;28;20055;-68
2023/04/03 08:43:56;;;;;;;0.50;0.10;;;20.80;63.80;;;;;;5029839;28;20053;-68
2023/04/03 08:46:31;;;;;;;0.73;0.30;;;20.90;63.90;;;;;;5029943;28;20049;-68
2023/04/03 08:49:00;;;;;;;1.52;0.10;;;20.80;63.90;;;;;;5030159;28;20490;-68
2023/04/03 08:51:28;;;;;;;0.95;0.10;;;20.80;63.90;;;;;;5032632;28;20063;-69
2023/04/03 08:54:01;;;;;;;1.65;0.10;;;20.80;64.10;;;;;;5029185;28;20060;-68
2023/04/03 08:56:30;;;;;;;1.63;1.25;;;20.80;64.10;;;;;;5036560;28;20073;-68
2023/04/03 08:59:01;;;;;;;0.57;0.30;;;20.80;64.10;;;;;;5039348;28;20098;-68
2023/04/03 09:01:35;;;;;;;0.95;0.40;;;20.70;64.10;;;;;;5030662;28;20058;-68
2023/04/03 09:04:03;;;;;;;0.80;0.40;;;20.70;64.20;;;;;;5026723;28;20057;-69
2023/04/03 09:06:33;;;;;;;0.65;0.10;;;20.70;64.20;;;;;;5032087;28;20053;-69
2023/04/03 09:09:12;;;;;;;0.98;0.10;;;20.70;64.30;;;;;;5027138;28;20487;-68
2023/04/03 09:11:52;;;;;;;0.63;0.30;;;20.70;64.40;;;;;;5040219;28;20053;-68
2023/04/03 09:14:26;;;;;;;0.65;0.13;;;20.70;64.40;;;;;;5027704;28;20506;-68
2023/04/03 09:16:57;;;;;;;0.40;0.10;;;20.70;64.50;;;;;;5032271;28;20518;-68
2023/04/03 09:19:42;;;;;;;1.63;0.70;;;20.60;64.40;;;;;;5040733;28;20536;-69
2023/04/03 09:22:18;;;;;;;0.88;0.50;;;20.70;64.60;;;;;;5035967;28;20116;-68
2023/04/03 09:24:48;;;;;;;0.80;0.35;;;20.60;64.60;;;;;;5028620;28;20093;-68
2023/04/03 09:27:14;;;;;;;1.10;0.50;;;20.60;64.70;;;;;;5039862;28;20059;-68
2023/04/03 09:29:45;;;;;;;1.10;0.57;;;20.60;64.70;;;;;;5032802;28;20072;-69
2023/04/03 09:32:28;;;;;;;0.70;0.55;;;20.50;64.70;;;;;;5040449;28;20080;-69
2023/04/03 09:34:59;;;;;;;1.48;1.08;;;20.60;64.80;;;;;;5040225;28;20063;-69
2023/04/03 09:37:38;;;;;;;0.73;0.08;;;20.50;64.80;;;;;;5031978;28;20565;-70
2023/04/03 09:40:07;;;;;;;1.10;0.30;;;20.60;64.80;;;;;;5028084;28;20053;-68
2023/04/03 09:42:39;;;;;;;0.40;0.10;;;20.60;64.80;;;;;;5039768;28;20406;-68
2023/04/03 09:45:23;;;;;;;0.93;0.60;;;20.50;64.80;;;;;;5032617;28;20052;-69
2023/04/03 09:48:04;;;;;;;1.17;0.50;;;20.50;64.90;;;;;;5031458;28;20049;-69
2023/04/03 09:50:32;;;;;;;0.90;0.40;;;20.60;64.90;;;;;;5028068;28;20059;-68
2023/04/03 09:52:58;;;;;;;1.33;0.45;;;20.50;64.90;;;;;;5042438;28;20045;-68
2023/04/03 09:55:29;;;;;;;1.58;0.60;;;20.60;65.00;;;;;;5029633;28;20260;-68
2023/04/03 09:57:59;;;;;;;0.95;0.52;;;20.60;65.00;;;;;;5032251;28;20053;-69
2023/04/03 10:00:31;;;;;;;1.02;0.47;;;20.60;65.00;;;;;;5035733;28;20053;-67
2023/04/03 10:02:59;;;;;;;1.20;0.40;;;20.60;65.00;;;;;;5034278;28;20034;-69
2023/04/03 10:05:34;;;;;;;1.33;0.20;;;20.60;65.00;;;;;;5033116;28;20061;-69
2023/04/03 10:08:23;;;;;;;1.00;0.40;;;20.60;65.10;;;;;;5032738;28;20053;-71
2023/04/03 10:11:08;;;;;;;1.17;0.30;;;20.60;65.00;;;;;;5035000;28;20523;-67
2023/04/03 10:13:35;;;;;;;1.67;0.10;;;20.60;64.90;;;;;;5030328;28;20053;-65
2023/04/03 10:16:07;;;;;;;0.90;0.40;;;20.60;64.90;;;;;;5029306;28;20090;-65
2023/04/03 10:18:44;;;;;;;1.02;0.15;;;20.60;65.00;;;;;;5028342;28;20050;-65
2023/04/03 10:21:16;;;;;;;1.73;0.40;;;20.60;65.10;;;;;;5028013;28;20053;-66
2023/04/03 10:23:49;;;;;;;0.90;0.10;;;20.60;65.10;;;;;;5033068;28;20052;-67
2023/04/03 10:26:27;;;;;;;1.17;0.73;;;20.60;65.10;;;;;;5033242;28;20045;-66
2023/04/03 10:29:00;;;;;;;0.75;0.40;;;20.70;65.20;;;;;;5037176;28;20053;-71
2023/04/03 10:31:36;;;;;;;1.23;0.63;;;20.70;65.30;;;;;;5029568;28;20133;-69
2023/04/03 10:34:06;;;;;;;1.42;0.40;;;20.70;65.30;;;;;;5037531;28;20042;-69
2023/04/03 10:36:43;;;;;;;1.90;0.57;;;20.70;65.30;;;;;;5034060;28;20143;-68
2023/04/03 10:39:20;;;;;;;1.67;0.50;;;20.70;65.30;;;;;;5032936;28;20133;-67
2023/04/03 10:41:57;;;;;;;1.23;0.80;;;20.70;65.30;;;;;;5044601;28;20065;-68
2023/04/03 10:44:37;;;;;;;0.82;0.35;;;20.80;65.30;;;;;;5046967;28;20060;-68
2023/04/03 10:47:13;;;;;;;1.20;0.40;;;20.80;65.30;;;;;;5047451;28;20049;-69
2023/04/03 10:49:51;;;;;;;0.70;0.30;;;20.80;65.30;;;;;;5041195;28;20056;-67
2023/04/03 10:52:23;;;;;;;3.15;0.47;;;20.80;65.20;;;;;;5032173;28;20050;-68
2023/04/03 10:55:01;;;;;;;1.20;0.50;;;20.90;65.30;;;;;;5037756;28;20099;-68
2023/04/03 10:57:30;;;;;;;1.20;0.50;;;20.90;65.30;;;;;;5031222;28;20049;-69
2023/04/03 11:00:00;;;;;;;0.93;0.52;;;20.90;65.30;;;;;;5040941;28;20092;-68
2023/04/03 11:02:32;;;;;;;0.60;0.10;;;21.00;65.40;;;;;;5040124;28;20072;-68
2023/04/03 11:05:03;;;;;;;1.35;0.60;;;21.00;65.40;;;;;;5040993;28;20081;-69
2023/04/03 11:07:36;;;;;;;1.30;0.40;;;21.00;65.30;;;;;;5029031;28;20088;-68
2023/04/03 11:10:13;;;;;;;0.40;0.10;;;21.00;65.40;;;;;;5035668;28;20152;-68
2023/04/03 11:12:44;;;;;;;1.25;0.47;;;21.00;65.40;;;;;;5034817;28;20470;-68
2023/04/03 11:15:16;;;;;;;0.55;0.30;;;21.00;65.40;;;;;;5040583;28;20049;-68
2023/04/03 11:17:50;;;;;;;1.25;0.40;;;21.10;65.50;;;;;;5028868;28;20068;-68
2023/04/03 11:20:20;;;;;;;0.50;0.10;;;21.10;65.50;;;;;;5043274;28;20057;-68
2023/04/03 11:22:53;;;;;;;0.85;0.40;;;21.10;65.40;;;;;;5032681;28;20157;-68
2023/04/03 11:25:23;;;;;;;1.48;0.50;;;21.10;65.40;;;;;;5038983;28;20045;-69
2023/04/03 11:27:55;;;;;;;0.85;0.10;;;21.20;65.50;;;;;;5029891;28;20049;-69
2023/04/03 11:30:27;;;;;;;1.23;0.40;;;21.20;65.50;;;;;;5032181;28;20136;-69
2023/04/03 11:33:17;;;;;;;0.30;0.03;;;21.20;65.40;;;;;;5032356;28;20063;-69
2023/04/03 11:35:46;;;;;;;1.10;0.63;;;21.20;65.50;;;;;;5034640;28;20057;-69
2023/04/03 11:38:22;;;;;;;1.35;0.55;;;21.20;65.40;;;;;;5032340;28;20178;-69
2023/04/03 11:40:51;;;;;;;1.30;0.50;;;21.20;65.40;;;;;;5035155;28;20053;-69
2023/04/03 11:43:25;;;;;;;0.60;0.30;;;21.30;65.40;;;;;;5030920;28;20053;-70
2023/04/03 11:45:58;;;;;;;0.60;0.10;;;21.30;65.50;;;;;;5027956;28;20532;-70
2023/04/03 11:48:51;;;;;;;1.85;0.57;;;21.30;65.50;;;;;;5027967;28;20053;-69
2023/04/03 11:51:50;;;;;;;1.20;0.88;;;21.30;65.50;;;;;;5032938;28;20045;-69
2023/04/03 11:54:37;;;;;;;0.63;0.30;;;21.30;65.40;;;;;;5034193;28;20062;-69
2023/04/03 11:57:37;;;;;;;0.90;0.57;;;21.30;65.40;;;;;;5030397;28;20060;-70
2023/04/03 12:00:38;;;;;;;0.88;0.50;;;21.40;65.50;;;;;;5040261;28;20103;-69
2023/04/03 12:03:55;;;;;;;1.15;0.10;;;21.40;65.50;;;;;;5034827;28;20045;-69
2023/04/03 12:07:05;;;;;;;0.85;0.10;;;21.40;65.50;;;;;;5030714;28;20052;-69
2023/04/03 12:09:58;;;;;;;1.25;0.32;;;21.40;65.50;;;;;;5010159;28;20045;-69
2023/04/03 12:12:34;;;;;;;0.60;0.32;;;21.50;65.50;;;;;;5029246;28;20049;-70
2023/04/03 12:15:24;;;;;;;1.30;0.60;;;21.50;65.50;;;;;;5039305;28;20057;-69
2023/04/03 12:17:52;;;;;;;1.50;0.43;;;21.50;65.60;;;;;;5032698;28;20056;-69
2023/04/03 12:20:54;;;;;;;0.75;0.03;;;21.50;65.50;;;;;;5040117;28;20057;-69
2023/04/03 12:23:27;;;;;;;1.13;0.40;;;21.50;65.60;;;;;;5032904;28;20510;-71
2023/04/03 12:26:21;;;;;;;1.20;0.40;;;21.60;65.50;;;;;;5036417;28;20053;-69
2023/04/03 12:28:52;;;;;;;1.13;1.02;;;21.60;65.50;;;;;;5031614;28;20053;-69
2023/04/03 12:31:20;;;;;;;0.88;0.40;;;21.60;65.50;;;;;;5032900;28;20041;-71
2023/04/03 12:34:16;;;;;;;2.05;0.40;;;21.60;65.50;;;;;;5035671;28;20048;-71
2023/04/03 12:36:53;;;;;;;0.80;0.70;;;21.60;65.60;;;;;;5032445;28;20053;-69
2023/04/03 12:39:47;;;;;;;1.00;0.60;;;21.60;65.50;;;;;;5039731;28;20077;-70
2023/04/03 12:42:34;;;;;;;1.20;0.88;;;21.70;65.70;;;;;;5037052;28;20052;-69
2023/04/03 12:45:09;;;;;;;0.73;0.10;;;21.60;65.70;;;;;;5035201;28;20042;-70
2023/04/03 12:47:37;;;;;;;0.77;0.20;;;21.60;65.60;;;;;;5031232;28;20517;-69
2023/04/03 12:50:19;;;;;;;1.52;0.40;;;21.70;65.70;;;;;;5039242;28;20056;-69
2023/04/03 12:52:51;;;;;;;1.05;0.55;;;21.70;65.70;;;;;;5035143;28;20075;-69
2023/04/03 12:55:19;;;;;;;0.90;0.40;;;21.70;65.70;;;;;;5035620;28;20049;-69
2023/04/03 12:57:48;;;;;;;0.90;0.35;;;21.70;65.70;;;;;;5039041;28;20128;-69
2023/04/03 13:00:35;;;;;;;0.85;0.30;;;21.70;65.70;;;;;;5028615;28;20057;-69
2023/04/03 13:03:04;;;;;;;1.88;0.10;;;21.80;65.80;;;;;;5038310;28;20068;-70
2023/04/03 13:05:33;;;;;;;0.68;0.30;;;21.80;65.70;;;;;;5027039;28;20506;-68